TimeCST,TemperatureF,Dew PointF,Humidity,Sea Level PressureIn,VisibilityMPH,Wind Direction,Wind SpeedMPH,Gust SpeedMPH,PrecipitationIn,Events,Conditions,WindDirDegrees,DateUTC
12:15 AM,50.0,33.8,54,29.74,10.0,SSW,4.6,-,N/A,,Clear,210,2013-02-07 06:15:00
12:35 AM,50.0,33.8,54,29.74,10.0,SSW,4.6,-,N/A,,Clear,210,2013-02-07 06:35:00
12:55 AM,44.6,32.0,61,29.75,10.0,West,5.8,-,N/A,,Clear,260,2013-02-07 06:55:00
1:15 AM,44.6,30.2,57,29.75,10.0,WSW,5.8,-,N/A,,Clear,240,2013-02-07 07:15:00
1:35 AM,41.0,30.2,65,29.75,10.0,WSW,8.1,-,N/A,,Clear,240,2013-02-07 07:35:00
1:55 AM,41.0,30.2,65,29.76,10.0,West,6.9,-,N/A,,Clear,270,2013-02-07 07:55:00
2:15 AM,41.0,26.6,57,29.78,10.0,NNW,9.2,-,N/A,,Clear,340,2013-02-07 08:15:00
2:35 AM,41.0,30.2,65,29.78,10.0,North,11.5,-,N/A,,Clear,360,2013-02-07 08:35:00
2:55 AM,41.0,32.0,70,29.78,10.0,North,15.0,19.6,N/A,,Clear,350,2013-02-07 08:55:00
3:15 AM,42.8,35.6,76,29.79,10.0,North,13.8,-,N/A,,Clear,360,2013-02-07 09:15:00
3:35 AM,42.8,37.4,81,29.80,10.0,North,13.8,-,N/A,,Clear,350,2013-02-07 09:35:00
3:55 AM,42.8,39.2,87,29.82,10.0,NNW,15.0,24.2,N/A,,Clear,340,2013-02-07 09:55:00
4:15 AM,44.6,39.2,81,29.82,10.0,North,15.0,-,N/A,,Scattered Clouds,360,2013-02-07 10:15:00
4:35 AM,44.6,41.0,87,29.85,10.0,North,15.0,21.9,N/A,,Mostly Cloudy,360,2013-02-07 10:35:00
4:55 AM,46.4,32.0,57,29.86,10.0,North,16.1,26.5,N/A,,Overcast,360,2013-02-07 10:55:00
5:15 AM,46.4,28.4,50,29.87,10.0,North,17.3,26.5,N/A,,Overcast,360,2013-02-07 11:15:00
5:35 AM,44.6,28.4,53,29.88,10.0,North,18.4,28.8,N/A,,Overcast,350,2013-02-07 11:35:00
6:15 AM,44.6,28.4,53,29.91,10.0,North,10.4,21.9,N/A,,Clear,360,2013-02-07 12:15:00
6:35 AM,44.6,28.4,53,29.93,10.0,North,17.3,25.3,N/A,,Clear,360,2013-02-07 12:35:00
6:55 AM,42.8,28.4,57,29.94,10.0,North,12.7,19.6,N/A,,Clear,10,2013-02-07 12:55:00
7:15 AM,42.8,28.4,57,29.95,10.0,North,17.3,24.2,N/A,,Mostly Cloudy,360,2013-02-07 13:15:00
7:35 AM,42.8,28.4,57,29.97,10.0,North,18.4,25.3,N/A,,Overcast,360,2013-02-07 13:35:00
8:15 AM,44.6,30.2,57,30.01,10.0,North,15.0,19.6,N/A,,Overcast,350,2013-02-07 14:15:00
8:35 AM,44.6,30.2,57,30.03,10.0,North,13.8,21.9,N/A,,Overcast,350,2013-02-07 14:35:00
8:55 AM,44.6,30.2,57,30.05,10.0,North,18.4,25.3,N/A,,Overcast,350,2013-02-07 14:55:00
9:15 AM,44.6,30.2,57,30.06,10.0,North,17.3,23.0,N/A,,Overcast,350,2013-02-07 15:15:00
9:35 AM,44.6,30.2,57,30.07,10.0,North,19.6,27.6,N/A,,Overcast,360,2013-02-07 15:35:00
9:55 AM,44.6,28.4,53,30.07,10.0,North,21.9,32.2,N/A,,Overcast,360,2013-02-07 15:55:00
10:15 AM,46.4,28.4,50,30.09,10.0,North,23.0,33.4,N/A,,Mostly Cloudy,360,2013-02-07 16:15:00
10:35 AM,46.4,28.4,50,30.09,10.0,North,26.5,32.2,N/A,,Overcast,360,2013-02-07 16:35:00
10:55 AM,46.4,28.4,50,30.10,10.0,North,21.9,29.9,N/A,,Overcast,360,2013-02-07 16:55:00
11:15 AM,48.2,26.6,43,30.10,10.0,North,20.7,33.4,N/A,,Mostly Cloudy,10,2013-02-07 17:15:00
11:35 AM,50.0,26.6,40,30.11,10.0,North,24.2,32.2,N/A,,Mostly Cloudy,10,2013-02-07 17:35:00
11:55 AM,51.8,24.8,35,30.10,10.0,NNE,29.9,34.5,N/A,,Scattered Clouds,20,2013-02-07 17:55:00
12:15 PM,51.8,23.0,33,30.10,10.0,North,25.3,33.4,N/A,,Clear,360,2013-02-07 18:15:00
12:35 PM,53.6,23.0,30,30.10,10.0,NNE,21.9,36.8,N/A,,Clear,20,2013-02-07 18:35:00
12:55 PM,53.6,21.2,28,30.10,10.0,NNE,24.2,35.7,N/A,,Clear,20,2013-02-07 18:55:00
1:15 PM,53.6,23.0,30,30.10,10.0,NNE,24.2,35.7,N/A,,Clear,20,2013-02-07 19:15:00
1:35 PM,55.4,23.0,29,30.10,10.0,NNE,17.3,33.4,N/A,,Clear,20,2013-02-07 19:35:00
1:55 PM,55.4,23.0,29,30.10,10.0,NNE,21.9,28.8,N/A,,Clear,20,2013-02-07 19:55:00
2:15 PM,55.4,23.0,29,30.09,10.0,NNE,23.0,31.1,N/A,,Clear,20,2013-02-07 20:15:00
2:35 PM,55.4,23.0,29,30.09,10.0,NNE,23.0,32.2,N/A,,Clear,20,2013-02-07 20:35:00
2:55 PM,55.4,23.0,29,30.08,10.0,North,21.9,29.9,N/A,,Clear,10,2013-02-07 20:55:00
3:15 PM,57.2,23.0,27,30.08,10.0,NNE,18.4,28.8,N/A,,Clear,20,2013-02-07 21:15:00
3:35 PM,55.4,23.0,29,30.09,10.0,North,20.7,28.8,N/A,,Clear,10,2013-02-07 21:35:00
3:55 PM,57.2,23.0,27,30.09,10.0,NNE,20.7,25.3,N/A,,Clear,20,2013-02-07 21:55:00
4:15 PM,57.2,24.8,29,30.09,10.0,North,17.3,23.0,N/A,,Clear,10,2013-02-07 22:15:00
4:35 PM,55.4,26.6,33,30.10,10.0,North,17.3,25.3,N/A,,Clear,10,2013-02-07 22:35:00
4:55 PM,55.4,26.6,33,30.10,10.0,North,16.1,21.9,N/A,,Clear,360,2013-02-07 22:55:00
5:15 PM,55.4,26.6,33,30.11,10.0,North,16.1,25.3,N/A,,Clear,10,2013-02-07 23:15:00
5:35 PM,53.6,24.8,33,30.12,10.0,North,13.8,-,N/A,,Clear,360,2013-02-07 23:35:00
5:55 PM,53.6,24.8,33,30.13,10.0,North,13.8,-,N/A,,Clear,10,2013-02-07 23:55:00
6:15 PM,51.8,24.8,35,30.14,10.0,North,11.5,-,N/A,,Clear,10,2013-02-08 00:15:00
6:35 PM,50.0,24.8,37,30.15,10.0,North,8.1,-,N/A,,Clear,10,2013-02-08 00:35:00
6:55 PM,46.4,24.8,43,30.16,10.0,North,6.9,-,N/A,,Clear,360,2013-02-08 00:55:00
7:15 PM,46.4,26.6,46,30.17,10.0,North,5.8,-,N/A,,Clear,350,2013-02-08 01:15:00
7:35 PM,44.6,26.6,49,30.17,10.0,North,5.8,-,N/A,,Clear,360,2013-02-08 01:35:00
7:55 PM,41.0,24.8,53,30.18,10.0,North,4.6,-,N/A,,Clear,360,2013-02-08 01:55:00
8:15 PM,42.8,24.8,49,30.18,10.0,North,4.6,-,N/A,,Clear,350,2013-02-08 02:15:00
8:35 PM,41.0,24.8,53,30.19,10.0,Calm,Calm,-,N/A,,Clear,0,2013-02-08 02:35:00
8:55 PM,41.0,24.8,53,30.19,10.0,Calm,Calm,-,N/A,,Clear,0,2013-02-08 02:55:00
9:15 PM,41.0,24.8,53,30.20,10.0,Calm,Calm,-,N/A,,Clear,0,2013-02-08 03:15:00
9:35 PM,35.6,23.0,60,30.20,10.0,Calm,Calm,-,N/A,,Clear,0,2013-02-08 03:35:00
10:15 PM,32.0,23.0,69,30.20,10.0,Calm,Calm,-,N/A,,Clear,0,2013-02-08 04:15:00
10:35 PM,32.0,23.0,69,30.21,10.0,Calm,Calm,-,N/A,,Clear,0,2013-02-08 04:35:00
10:55 PM,32.0,23.0,69,30.21,10.0,Calm,Calm,-,N/A,,Clear,0,2013-02-08 04:55:00
11:15 PM,30.2,21.2,69,30.22,10.0,SSW,3.5,-,N/A,,Clear,200,2013-02-08 05:15:00
11:35 PM,30.2,23.0,75,30.22,10.0,South,4.6,-,N/A,,Clear,180,2013-02-08 05:35:00